createdAt,value
2022-10-23T00:01:16.855Z,98838.66
2022-10-23T00:03:44.606Z,98839.47
2022-10-23T00:06:12.467Z,98840.69
2022-10-23T00:08:39.826Z,98836.25
2022-10-23T00:11:11.440Z,98843.09
2022-10-23T00:13:38.671Z,98840.47
2022-10-23T00:16:05.844Z,98847.28
2022-10-23T00:18:33.140Z,98849.72
2022-10-23T00:21:00.133Z,98839.50
2022-10-23T00:23:26.869Z,98845.94
2022-10-23T00:25:53.510Z,98843.34
2022-10-23T00:28:22.719Z,98843.78
2022-10-23T00:30:49.536Z,98832.34
2022-10-23T00:33:16.430Z,98839.56
2022-10-23T00:35:43.317Z,98827.16
2022-10-23T00:38:13.002Z,98831.19
2022-10-23T00:40:44.064Z,98824.19
2022-10-23T00:43:26.354Z,98822.78
2022-10-23T00:45:55.486Z,98825.16
2022-10-23T00:48:22.651Z,98814.75
2022-10-23T00:50:50.157Z,98818.38
2022-10-23T00:53:18.962Z,98806.56
2022-10-23T00:55:48.972Z,98810.97
2022-10-23T00:58:18.506Z,98811.34
2022-10-23T01:00:48.697Z,98804.78
2022-10-23T01:03:18.238Z,98810.38
2022-10-23T01:05:51.783Z,98810.16
2022-10-23T01:08:28.670Z,98814.38
2022-10-23T01:11:12.560Z,98805.34
2022-10-23T01:16:50.850Z,98796.59
2022-10-23T01:19:43.604Z,98794.97
2022-10-23T01:25:03.063Z,98786.56
2022-10-23T01:27:39.944Z,98783.56
2022-10-23T01:30:09.748Z,98776.56
2022-10-23T01:32:51.058Z,98781.16
2022-10-23T01:35:24.851Z,98775.16
2022-10-23T01:38:14.376Z,98779.56
2022-10-23T01:40:53.388Z,98772.97
2022-10-23T01:43:35.244Z,98768.50
2022-10-23T01:46:06.555Z,98772.31
2022-10-23T01:48:36.509Z,98775.81
2022-10-23T01:51:09.793Z,98765.94
2022-10-23T01:53:41.609Z,98768.75
2022-10-23T01:56:12.098Z,98760.72
2022-10-23T01:58:42.574Z,98755.94
2022-10-23T02:01:12.741Z,98754.91
2022-10-23T02:03:42.715Z,98761.31
2022-10-23T02:06:09.584Z,98757.66
2022-10-23T02:08:38.531Z,98751.47
2022-10-23T02:11:12.789Z,98751.69
2022-10-23T02:14:11.765Z,98757.09
2022-10-23T02:16:53.472Z,98746.84
2022-10-23T02:19:29.302Z,98742.44
2022-10-23T02:22:11.067Z,98737.41
2022-10-23T02:24:43.335Z,98733.66
2022-10-23T02:27:19.174Z,98739.03
2022-10-23T02:29:52.237Z,98737.88
2022-10-23T02:32:22.462Z,98739.09
2022-10-23T02:34:52.163Z,98735.84
2022-10-23T02:39:55.389Z,98740.88
2022-10-23T02:42:41.243Z,98730.31
2022-10-23T02:45:16.813Z,98735.34
2022-10-23T02:48:34.075Z,98736.31
2022-10-23T02:51:07.882Z,98742.13
2022-10-23T02:53:43.290Z,98738.13
2022-10-23T02:56:23.055Z,98742.34
2022-10-23T02:59:11.463Z,98741.59
2022-10-23T03:02:02.827Z,98742.59
2022-10-23T03:04:31.757Z,98741.41
2022-10-23T03:06:58.509Z,98744.78
2022-10-23T03:09:26.882Z,98745.22
2022-10-23T03:11:56.232Z,98740.03
2022-10-23T03:14:22.883Z,98730.81
2022-10-23T03:16:49.688Z,98724.81
2022-10-23T03:19:16.407Z,98743.41
2022-10-23T03:21:43.171Z,98736.81
2022-10-23T03:24:09.916Z,98745.22
2022-10-23T03:26:36.592Z,98735.00
2022-10-23T03:29:03.252Z,98735.19
2022-10-23T03:31:29.849Z,98729.41
2022-10-23T03:33:56.385Z,98732.44
2022-10-23T03:36:22.965Z,98733.22
2022-10-23T03:38:50.986Z,98730.44
2022-10-23T03:41:17.573Z,98733.47
2022-10-23T03:43:44.145Z,98726.66
2022-10-23T03:46:12.884Z,98718.47
2022-10-23T03:48:39.635Z,98719.66
2022-10-23T03:51:06.614Z,98720.28
2022-10-23T03:53:33.390Z,98723.69
2022-10-23T03:56:02.572Z,98721.50
2022-10-23T03:58:29.258Z,98717.31
2022-10-23T04:00:56.099Z,98719.28
2022-10-23T04:03:23.088Z,98718.28
2022-10-23T04:05:52.224Z,98727.69
2022-10-23T04:08:20.173Z,98739.91
2022-10-23T04:10:46.974Z,98730.91
2022-10-23T04:13:13.732Z,98729.13
2022-10-23T04:15:47.491Z,98729.50
2022-10-23T04:18:14.184Z,98730.31
2022-10-23T04:20:40.914Z,98728.69
2022-10-23T04:23:07.597Z,98724.47
2022-10-23T04:25:34.315Z,98722.91
2022-10-23T04:28:01.135Z,98725.88
2022-10-23T04:30:27.771Z,98727.31
2022-10-23T04:32:54.449Z,98712.91
2022-10-23T04:35:20.972Z,98710.28
2022-10-23T04:37:47.706Z,98714.47
2022-10-23T04:40:14.371Z,98713.31
2022-10-23T04:42:41.327Z,98713.50
2022-10-23T04:45:08.454Z,98714.91
2022-10-23T04:47:35.090Z,98704.72
2022-10-23T04:50:02.299Z,98712.72
2022-10-23T04:52:28.986Z,98707.91
2022-10-23T04:54:55.685Z,98713.31
2022-10-23T04:57:22.414Z,98707.69
2022-10-23T04:59:49.090Z,98709.50
2022-10-23T05:02:18.909Z,98718.91
2022-10-23T05:04:46.549Z,98724.91
2022-10-23T05:07:16.554Z,98724.91
2022-10-23T05:09:43.371Z,98724.31
2022-10-23T05:12:10.220Z,98722.31
2022-10-23T05:14:36.840Z,98719.13
2022-10-23T05:17:14.376Z,98729.53
2022-10-23T05:19:45.402Z,98717.72
2022-10-23T05:22:13.496Z,98713.16
2022-10-23T05:24:40.494Z,98710.34
2022-10-23T05:27:10.338Z,98710.13
2022-10-23T05:29:36.970Z,98718.50
2022-10-23T05:32:11.757Z,98717.72
2022-10-23T05:34:40.329Z,98714.50
2022-10-23T05:37:10.726Z,98719.53
2022-10-23T05:39:37.829Z,98719.91
2022-10-23T05:42:04.816Z,98731.72
2022-10-23T05:44:33.250Z,98723.34
2022-10-23T05:46:59.978Z,98710.13
2022-10-23T05:49:26.787Z,98698.53
2022-10-23T05:51:53.541Z,98696.50
2022-10-23T05:54:20.253Z,98696.31
2022-10-23T05:56:47.054Z,98704.91
2022-10-23T05:59:13.794Z,98698.50
2022-10-23T06:01:40.655Z,98702.09
2022-10-23T06:04:07.569Z,98707.88
2022-10-23T06:06:37.490Z,98706.25
2022-10-23T06:09:05.199Z,98700.31
2022-10-23T06:11:31.932Z,98703.88
2022-10-23T06:14:00.905Z,98707.06
2022-10-23T06:16:28.117Z,98704.03
2022-10-23T06:18:55.354Z,98700.41
2022-10-23T06:21:22.373Z,98707.44
2022-10-23T06:23:49.297Z,98710.22
2022-10-23T06:26:18.415Z,98710.41
2022-10-23T06:28:47.393Z,98705.81
2022-10-23T06:31:19.269Z,98714.59
2022-10-23T06:33:52.572Z,98719.19
2022-10-23T06:36:19.513Z,98718.34
2022-10-23T06:38:46.317Z,98726.97
2022-10-23T06:41:19.254Z,98730.31
2022-10-23T06:43:49.702Z,98722.09
2022-10-23T06:46:18.073Z,98720.25
2022-10-23T06:48:45.271Z,98718.03
2022-10-23T06:51:14.173Z,98712.81
2022-10-23T06:53:40.945Z,98714.97
2022-10-23T06:56:08.908Z,98712.97
2022-10-23T06:58:37.668Z,98715.34
2022-10-23T07:01:07.978Z,98731.34
2022-10-23T07:03:35.245Z,98721.09
2022-10-23T07:06:03.581Z,98720.66
2022-10-23T07:08:30.482Z,98725.59
2022-10-23T07:10:57.471Z,98710.69
2022-10-23T07:13:25.022Z,98712.09
2022-10-23T07:15:54.042Z,98713.72
2022-10-23T07:18:21.179Z,98708.06
2022-10-23T07:20:49.630Z,98706.59
2022-10-23T07:23:18.511Z,98699.81
2022-10-23T07:25:45.428Z,98702.13
2022-10-23T07:28:12.516Z,98708.31
2022-10-23T07:30:41.080Z,98706.50
2022-10-23T07:33:12.550Z,98706.03
2022-10-23T07:35:41.145Z,98707.56
2022-10-23T07:38:08.196Z,98706.09
2022-10-23T07:40:38.287Z,98705.66
2022-10-23T07:43:05.564Z,98707.84
2022-10-23T07:45:33.650Z,98697.88
2022-10-23T07:48:00.485Z,98700.97
2022-10-23T07:50:27.251Z,98700.34
2022-10-23T07:52:54.950Z,98694.25
2022-10-23T07:55:24.887Z,98696.13
2022-10-23T07:57:51.731Z,98706.97
2022-10-23T08:00:18.698Z,98703.22
2022-10-23T08:02:45.525Z,98694.75
2022-10-23T08:05:12.465Z,98684.56
2022-10-23T08:07:40.700Z,98684.63
2022-10-23T08:10:07.932Z,98677.25
2022-10-23T08:12:37.303Z,98679.09
2022-10-23T08:15:04.598Z,98678.69
2022-10-23T08:17:33.466Z,98675.97
2022-10-23T08:20:00.383Z,98668.63
2022-10-23T08:22:27.313Z,98670.44
2022-10-23T08:24:54.362Z,98670.44
2022-10-23T08:27:23.941Z,98672.50
2022-10-23T08:29:50.687Z,98661.03
2022-10-23T08:32:17.446Z,98665.81
2022-10-23T08:34:44.119Z,98665.22
2022-10-23T08:37:10.853Z,98664.84
2022-10-23T08:39:39.754Z,98652.66
2022-10-23T08:42:06.653Z,98655.03
2022-10-23T08:45:03.374Z,98655.81
2022-10-23T08:47:42.771Z,98657.91
2022-10-23T08:53:25.623Z,98651.31
2022-10-23T08:56:06.898Z,98651.00
2022-10-23T08:58:46.175Z,98644.38
2022-10-23T09:01:36.691Z,98638.56
2022-10-23T09:04:04.432Z,98623.78
2022-10-23T09:06:40.390Z,98637.63
2022-10-23T09:09:36.300Z,98632.03
2022-10-23T09:12:14.005Z,98639.56
2022-10-23T09:14:40.556Z,98640.25
2022-10-23T09:17:26.323Z,98638.50
2022-10-23T09:20:25.937Z,98638.00
2022-10-23T09:23:20.875Z,98632.66
2022-10-23T09:25:51.908Z,98627.28
2022-10-23T09:28:26.061Z,98641.94
2022-10-23T09:30:53.336Z,98640.53
2022-10-23T09:33:22.210Z,98632.00
2022-10-23T09:35:56.663Z,98634.84
2022-10-23T09:38:36.178Z,98627.25
2022-10-23T09:41:27.711Z,98624.59
2022-10-23T09:44:20.407Z,98611.59
2022-10-23T09:47:08.932Z,98612.16
2022-10-23T09:49:35.876Z,98611.50
2022-10-23T09:52:04.866Z,98601.13
2022-10-23T09:54:54.337Z,98593.81
2022-10-23T09:57:28.452Z,98597.56
2022-10-23T10:00:01.416Z,98594.19
2022-10-23T10:02:34.486Z,98603.75
2022-10-23T10:05:32.031Z,98613.56
2022-10-23T10:08:24.719Z,98614.22
2022-10-23T10:11:07.043Z,98601.59
2022-10-23T10:13:33.672Z,98603.44
2022-10-23T10:16:07.080Z,98601.06
2022-10-23T10:18:43.297Z,98596.09
2022-10-23T10:21:27.915Z,98583.44
2022-10-23T10:24:08.562Z,98589.22
2022-10-23T10:26:52.206Z,98579.47
2022-10-23T10:29:25.746Z,98570.50
2022-10-23T10:31:58.387Z,98557.84
2022-10-23T10:34:54.143Z,98563.06
2022-10-23T10:37:58.355Z,98552.50
2022-10-23T10:40:31.543Z,98555.69
2022-10-23T10:43:23.118Z,98546.72
2022-10-23T10:46:00.986Z,98532.41
2022-10-23T10:48:37.578Z,98539.75
2022-10-23T10:51:08.416Z,98530.91
2022-10-23T10:54:02.837Z,98522.81
2022-10-23T10:56:33.482Z,98523.22
2022-10-23T10:59:04.797Z,98516.69
2022-10-23T11:02:23.527Z,98515.09
2022-10-23T11:11:52.486Z,98483.28
2022-10-23T11:14:51.463Z,98468.31
2022-10-23T11:18:33.038Z,98471.25
2022-10-23T11:21:50.073Z,98478.47
2022-10-23T11:24:58.160Z,98484.47
2022-10-23T11:28:47.289Z,98491.00
2022-10-23T11:31:22.940Z,98490.50
2022-10-23T11:34:04.383Z,98499.22
2022-10-23T11:36:57.542Z,98497.75
2022-10-23T11:40:06.337Z,98493.22
2022-10-23T11:43:17.550Z,98484.63
2022-10-23T11:46:02.622Z,98494.78
2022-10-23T11:48:40.021Z,98484.84
2022-10-23T11:51:31.006Z,98481.41
2022-10-23T11:54:07.662Z,98468.88
2022-10-23T11:57:03.208Z,98453.47
2022-10-23T11:59:36.011Z,98447.31
2022-10-23T12:02:28.015Z,98450.25
2022-10-23T12:04:56.592Z,98445.53
2022-10-23T12:07:45.268Z,98425.94
2022-10-23T12:10:41.351Z,98424.03
2022-10-23T12:13:49.901Z,98429.31
2022-10-23T12:17:02.315Z,98436.22
2022-10-23T12:19:49.889Z,98427.50
2022-10-23T12:23:01.809Z,98415.31
2022-10-23T12:26:06.111Z,98413.22
2022-10-23T12:33:31.708Z,98424.09
2022-10-23T12:53:11.864Z,98377.13
2022-10-23T12:57:35.334Z,98374.75
2022-10-23T13:01:04.006Z,98370.78
2022-10-23T13:03:53.569Z,98380.88
2022-10-23T13:07:06.173Z,98368.47
2022-10-23T13:09:50.035Z,98364.31
2022-10-23T13:12:27.232Z,98367.34
2022-10-23T13:15:01.974Z,98377.75
2022-10-23T13:17:42.270Z,98375.16
2022-10-23T13:20:18.486Z,98366.53
2022-10-23T13:22:54.186Z,98363.75
2022-10-23T13:25:28.435Z,98358.25
2022-10-23T13:28:23.085Z,98359.38
2022-10-23T13:31:00.703Z,98358.09
2022-10-23T13:33:35.329Z,98351.25
2022-10-23T13:36:23.800Z,98352.38
2022-10-23T13:38:59.958Z,98353.44
2022-10-23T13:41:31.286Z,98342.06
2022-10-23T13:43:58.090Z,98338.38
2022-10-23T13:46:28.196Z,98343.94
2022-10-23T13:48:55.027Z,98340.78
2022-10-23T13:51:27.559Z,98337.63
2022-10-23T13:53:55.661Z,98331.75
2022-10-23T13:56:24.245Z,98336.69
2022-10-23T13:58:51.131Z,98336.31
2022-10-23T14:01:28.430Z,98338.06
2022-10-23T14:03:57.304Z,98342.53
2022-10-23T14:06:24.340Z,98335.84
2022-10-23T14:08:51.439Z,98332.31
2022-10-23T14:11:19.872Z,98333.66
2022-10-23T14:13:48.926Z,98330.97
2022-10-23T14:16:20.252Z,98326.06
2022-10-23T14:18:50.668Z,98327.50
2022-10-23T14:21:21.993Z,98333.94
2022-10-23T14:23:50.405Z,98337.06
2022-10-23T14:26:20.380Z,98340.78
2022-10-23T14:28:53.387Z,98333.97
2022-10-23T14:31:21.113Z,98325.50
2022-10-23T14:33:53.407Z,98325.28
2022-10-23T14:36:20.262Z,98321.88
2022-10-23T14:38:47.200Z,98323.72
2022-10-23T14:41:16.753Z,98316.41
2022-10-23T14:43:44.033Z,98310.66
2022-10-23T14:46:16.101Z,98307.53
2022-10-23T14:48:46.209Z,98312.31
2022-10-23T14:51:21.179Z,98307.59
2022-10-23T14:53:49.530Z,98306.06
2022-10-23T14:56:16.508Z,98308.47
2022-10-23T14:58:44.550Z,98310.00
2022-10-23T15:01:14.758Z,98303.66
2022-10-23T15:03:43.776Z,98300.47
2022-10-23T15:06:11.814Z,98298.13
2022-10-23T15:08:40.449Z,98299.69
2022-10-23T15:11:12.592Z,98286.78
2022-10-23T15:13:39.536Z,98306.03
2022-10-23T15:16:09.327Z,98292.09
2022-10-23T15:21:08.977Z,98297.41
2022-10-23T15:23:38.256Z,98298.97
2022-10-23T15:26:08.852Z,98297.69
2022-10-23T15:28:35.801Z,98303.75
2022-10-23T15:31:05.402Z,98301.38
2022-10-23T15:33:32.168Z,98301.91
2022-10-23T15:35:58.836Z,98309.56
2022-10-23T15:38:26.115Z,98300.88
2022-10-23T15:41:03.911Z,98292.97
2022-10-23T15:43:30.714Z,98295.84
2022-10-23T15:45:59.745Z,98294.81
2022-10-23T15:48:26.578Z,98292.97
2022-10-23T15:50:53.377Z,98293.47
2022-10-23T15:53:20.308Z,98297.41
2022-10-23T15:55:49.510Z,98294.78
2022-10-23T15:58:20.819Z,98297.66
2022-10-23T16:00:50.055Z,98294.25
2022-10-23T16:03:16.753Z,98301.84
2022-10-23T16:05:46.610Z,98298.16
2022-10-23T16:08:13.343Z,98297.34
2022-10-23T16:10:43.420Z,98298.13
2022-10-23T16:13:10.220Z,98281.81
2022-10-23T16:15:38.307Z,98282.06
2022-10-23T16:18:07.193Z,98283.63
2022-10-23T16:20:33.849Z,98279.41
2022-10-23T16:23:00.603Z,98276.53
2022-10-23T16:25:27.530Z,98272.81
2022-10-23T16:27:54.893Z,98279.16
2022-10-23T16:30:22.982Z,98273.63
2022-10-23T16:32:50.773Z,98262.31
2022-10-23T16:35:17.614Z,98272.28
2022-10-23T16:37:44.670Z,98274.88
2022-10-23T16:40:11.926Z,98261.72
2022-10-23T16:42:40.403Z,98261.97
2022-10-23T16:45:08.358Z,98262.78
2022-10-23T16:47:37.528Z,98255.91
2022-10-23T16:50:04.502Z,98245.38
2022-10-23T16:52:31.239Z,98230.63
2022-10-23T16:55:01.928Z,98218.00
2022-10-23T16:57:28.717Z,98216.13
2022-10-23T16:59:55.535Z,98246.31
2022-10-23T17:02:22.498Z,98263.94
2022-10-23T17:04:49.453Z,98267.59
2022-10-23T17:07:18.615Z,98258.66
2022-10-23T17:09:46.729Z,98256.53
2022-10-23T17:12:14.189Z,98260.97
2022-10-23T17:14:40.961Z,98251.75
2022-10-23T17:17:09.726Z,98254.81
2022-10-23T17:19:45.229Z,98254.78
2022-10-23T17:22:13.346Z,98255.34
2022-10-23T17:24:41.869Z,98247.53
2022-10-23T17:27:11.765Z,98257.16
2022-10-23T17:29:38.586Z,98272.91
2022-10-23T17:32:06.037Z,98260.56
2022-10-23T17:34:32.917Z,98265.81
2022-10-23T17:36:59.591Z,98259.50
2022-10-23T17:39:29.315Z,98268.13
2022-10-23T17:41:57.068Z,98260.50
2022-10-23T17:44:23.958Z,98272.88
2022-10-23T17:46:59.539Z,98269.66
2022-10-23T17:49:27.325Z,98275.41
2022-10-23T17:51:57.275Z,98269.56
2022-10-23T17:54:27.676Z,98271.91
2022-10-23T17:56:54.538Z,98271.31
2022-10-23T17:59:24.120Z,98255.28
2022-10-23T18:01:51.091Z,98253.25
2022-10-23T18:04:19.769Z,98267.13
2022-10-23T18:06:52.486Z,98251.84
2022-10-23T18:09:20.336Z,98243.47
2022-10-23T18:11:48.404Z,98222.56
2022-10-23T18:14:17.746Z,98213.06
2022-10-23T18:16:45.881Z,98205.47
2022-10-23T18:19:14.177Z,98240.94
2022-10-23T18:21:40.891Z,98243.50
2022-10-23T18:24:07.737Z,98239.31
2022-10-23T18:26:39.905Z,98226.47
2022-10-23T18:29:07.629Z,98232.94
2022-10-23T18:31:37.177Z,98253.19
2022-10-23T18:34:14.903Z,98241.59
2022-10-23T18:36:44.352Z,98231.91
2022-10-23T18:39:14.836Z,98231.91
2022-10-23T18:41:43.860Z,98244.75
2022-10-23T18:44:19.227Z,98230.06
2022-10-23T18:46:47.512Z,98235.84
2022-10-23T18:49:14.760Z,98226.66
2022-10-23T18:51:41.532Z,98231.13
2022-10-23T18:54:12.815Z,98221.13
2022-10-23T18:56:39.893Z,98233.78
2022-10-23T18:59:10.186Z,98241.13
2022-10-23T19:01:39.682Z,98238.25
2022-10-23T19:04:07.303Z,98233.25
2022-10-23T19:06:36.189Z,98227.47
2022-10-23T19:09:04.834Z,98233.25
2022-10-23T19:11:31.536Z,98225.91
2022-10-23T19:13:58.366Z,98218.84
2022-10-23T19:16:25.078Z,98217.84
2022-10-23T19:19:07.123Z,98206.25
2022-10-23T19:21:37.978Z,98214.63
2022-10-23T19:24:12.240Z,98211.47
2022-10-23T19:26:42.670Z,98211.97
2022-10-23T19:29:11.365Z,98201.75
2022-10-23T19:31:38.129Z,98196.28
2022-10-23T19:34:04.825Z,98214.88
2022-10-23T19:36:31.941Z,98209.63
2022-10-23T19:39:01.000Z,98213.81
2022-10-23T19:41:32.797Z,98225.13
2022-10-23T19:43:59.455Z,98239.31
2022-10-23T19:46:27.094Z,98262.16
2022-10-23T19:48:56.397Z,98272.41
2022-10-23T19:51:25.386Z,98276.66
2022-10-23T19:53:54.634Z,98308.44
2022-10-23T19:56:21.881Z,98303.66
2022-10-23T19:58:50.272Z,98305.44
2022-10-23T20:01:21.631Z,98310.69
2022-10-23T20:03:50.304Z,98339.50
2022-10-23T20:06:21.374Z,98361.25
2022-10-23T20:08:48.729Z,98361.00
2022-10-23T20:11:20.237Z,98357.03
2022-10-23T20:13:48.491Z,98361.25
2022-10-23T20:16:20.768Z,98358.69
2022-10-23T20:18:48.027Z,98342.41
2022-10-23T20:21:15.410Z,98348.25
2022-10-23T20:23:42.256Z,98348.47
2022-10-23T20:26:18.387Z,98345.56
2022-10-23T20:28:54.374Z,98346.09
2022-10-23T20:31:24.148Z,98349.22
2022-10-23T20:33:54.164Z,98351.66
2022-10-23T20:36:35.583Z,98361.59
2022-10-23T20:39:08.127Z,98366.63
2022-10-23T20:41:37.262Z,98358.69
2022-10-23T20:44:06.225Z,98373.94
2022-10-23T20:46:33.144Z,98366.13
2022-10-23T20:49:00.153Z,98348.81
2022-10-23T20:51:27.044Z,98350.09
2022-10-23T20:53:54.724Z,98345.91
2022-10-23T20:56:31.261Z,98349.09
2022-10-23T20:59:10.941Z,98349.59
2022-10-23T21:01:40.872Z,98358.28
2022-10-23T21:04:07.742Z,98370.25
2022-10-23T21:06:51.931Z,98362.44
2022-10-23T21:09:30.355Z,98354.03
2022-10-23T21:11:57.099Z,98335.66
2022-10-23T21:14:23.718Z,98329.31
2022-10-23T21:16:50.339Z,98321.41
2022-10-23T21:19:19.373Z,98321.97
2022-10-23T21:21:45.977Z,98321.13
2022-10-23T21:24:16.023Z,98327.59
2022-10-23T21:26:43.241Z,98318.72
2022-10-23T21:29:18.660Z,98318.97
2022-10-23T21:31:54.095Z,98323.63
2022-10-23T21:34:20.864Z,98326.56
2022-10-23T21:37:10.815Z,98317.25
2022-10-23T21:39:34.404Z,98307.28
2022-10-23T21:42:01.373Z,98312.59
2022-10-23T21:44:28.207Z,98309.72
2022-10-23T21:46:55.376Z,98309.19
2022-10-23T21:49:22.093Z,98309.91
2022-10-23T21:51:48.798Z,98314.66
2022-10-23T21:54:15.589Z,98324.59
2022-10-23T21:56:48.174Z,98320.34
2022-10-23T21:59:17.938Z,98322.69
2022-10-23T22:01:46.534Z,98327.38
2022-10-23T22:04:15.433Z,98326.66
2022-10-23T22:06:43.095Z,98324.75
2022-10-23T22:09:12.466Z,98331.28
2022-10-23T22:11:42.201Z,98344.72
2022-10-23T22:14:08.864Z,98333.69
2022-10-23T22:16:35.640Z,98341.28
2022-10-23T22:19:02.986Z,98342.44
2022-10-23T22:21:33.321Z,98343.00
2022-10-23T22:24:01.059Z,98341.91
2022-10-23T22:26:38.171Z,98329.81
2022-10-23T22:29:08.135Z,98329.91
2022-10-23T22:31:36.438Z,98317.56
2022-10-23T22:34:13.339Z,98322.69
2022-10-23T22:36:51.763Z,98334.91
2022-10-23T22:39:18.932Z,98321.28
2022-10-23T22:41:46.538Z,98328.47
2022-10-23T22:44:14.862Z,98326.84
2022-10-23T22:46:42.263Z,98320.91
2022-10-23T22:49:09.465Z,98323.03
2022-10-23T22:51:38.826Z,98317.22
2022-10-23T22:54:05.810Z,98320.03
2022-10-23T22:56:32.946Z,98321.94
2022-10-23T22:58:59.739Z,98326.41
2022-10-23T23:05:12.017Z,98309.63
2022-10-23T23:07:38.674Z,98308.63
2022-10-23T23:10:05.815Z,98307.84
2022-10-23T23:12:32.556Z,98312.31
2022-10-23T23:15:00.306Z,98301.59
2022-10-23T23:21:28.224Z,98311.03
2022-10-23T23:23:56.805Z,98312.91
2022-10-23T23:26:23.868Z,98310.53
2022-10-23T23:28:54.633Z,98310.28
2022-10-23T23:31:25.286Z,98314.56
2022-10-23T23:33:53.079Z,98320.34
2022-10-23T23:36:23.226Z,98330.06
2022-10-23T23:38:52.972Z,98331.41
2022-10-23T23:41:21.314Z,98331.91
2022-10-23T23:43:48.707Z,98325.06
2022-10-23T23:46:16.548Z,98330.13
2022-10-23T23:48:47.711Z,98330.88
2022-10-23T23:51:16.259Z,98339.28
2022-10-23T23:53:43.422Z,98348.16
2022-10-23T23:56:13.201Z,98351.56
2022-10-23T23:58:40.089Z,98352.63
